Dewar, IA

11:56 PM CST on January 29, 2015 (GMT -0600)
Columbus Dr - Waterloo | Change Station
CLOSE
Current Station
Personal Weather Station
Location: Waterloo, IA
Elevation: 910 ft
Nearby Weather Stations

Elev 910 ft 42.47 °N, 92.34 °W | Updated 7 seconds ago

Clear
Clear
22.6 °F
Feels Like 23 °F
N
2.9
Wind Variable Wind from NNW
Gusts 6.0 mph

Today
High -- | Low -- °F
--% Chance of Precip.
Yesterday
High -- | Low -- °F
Precip. -- in
7:26 AM 5:18 PM
Waxing Gibbous, 80% visible
Pressure 30.51 in
Visibility 10.0 miles
Clouds Few 3000 ft
Windchill 23 °F
Dew Point 16 °F
Humidity 77%
Rainfall 0.00 in
Snow Depth Not available.
UV 0 out of 12
Pollen .10 out of 12
Air Quality Not available.
Flu Activity Not available.
METAR KALO 300454Z AUTO 33013KT 10SM FEW030 M06/M09 A3047 RMK AO2 SLP329 T10561094

More Conditions Fewer Conditions

Pressure 30.51 in
Visibility 10.0 miles
Clouds Few 3000 ft
Windchill 23 °F
Dew Point 16 °F
Humidity 77%
Rainfall 0.00 in
Snow Depth Not available.
UV 0 out of 12
Pollen .10 out of 12
Air Quality Not available.
Flu Activity Not available.
METAR KALO 300454Z AUTO 33013KT 10SM FEW030 M06/M09 A3047 RMK AO2 SLP329 T10561094

More Conditions Fewer Conditions

10-Day Weather Forecast

Almanac

Astronomy

Jan. 29, 2015 Rise Set
Actual Time
Civil Twilight
Nautical Twilight
Astronomical Twilight
Moon
Length of Visible Light
Length of Day
Tomorrow will be .
, % of the Moon is Illuminated

Today's Extremes

State Highs State Lows

Community

WunderPhotos

Upload Photos

1,791,722 photos uploaded!

WunderBlogs® & News

Nearby

Air Quality

  Air Quality AQ Index Pollutant
Not available.

Snow Depth

Station Depth Elevation

Earthquake Activity

City Distance Mag. Time & Date
Minimum magnitude displayed is 2.5.

Coastal Water Temperatures

Place Temperature

Nearby Weather Stations